Time;durP1;ratioP1;P1;durP2;ratioP2;P2;SDS_P1;SDS_P2;PMS_P1;PMS_P2;Temp;Humidity;BMP_temperature;BMP_pressure;BME280_temperature;BME280_humidity;BME280_pressure;Samples;Min_cycle;Max_cycle;Signal;HPM_P1;HPM_P2
2023/04/18 00:00:00;;;;;;;9.90;9.00;;;;;;;8.89;100.00;99167.64;109584;1250;64837;-75
2023/04/18 00:02:28;;;;;;;10.30;9.40;;;;;;;8.89;100.00;99169.21;109582;1250;60242;-75
2023/04/18 00:04:55;;;;;;;11.00;9.90;;;;;;;8.89;100.00;99169.92;109591;1250;63112;-75
2023/04/18 00:07:21;;;;;;;10.40;9.30;;;;;;;8.89;100.00;99167.27;109553;1250;59015;-75
2023/04/18 00:09:48;;;;;;;11.40;10.30;;;;;;;8.88;100.00;99168.19;109607;1250;58933;-75
2023/04/18 00:12:14;;;;;;;10.40;9.40;;;;;;;8.88;100.00;99165.38;109648;1250;66148;-75
2023/04/18 00:14:42;;;;;;;10.00;9.10;;;;;;;8.89;100.00;99160.55;109514;1251;59078;-75
2023/04/18 00:17:09;;;;;;;9.70;8.70;;;;;;;8.89;100.00;99160.56;109510;1251;62856;-75
2023/04/18 00:19:37;;;;;;;10.50;9.60;;;;;;;8.88;100.00;99157.39;109451;1251;58961;-75
2023/04/18 00:22:05;;;;;;;9.20;8.30;;;;;;;8.88;100.00;99158.27;109526;1251;59043;-75
2023/04/18 00:24:32;;;;;;;9.60;8.70;;;;;;;8.88;100.00;99156.72;109505;1251;64843;-75
2023/04/18 00:26:58;;;;;;;8.50;7.70;;;;;;;8.88;100.00;99153.51;109462;1251;58995;-74
2023/04/18 00:29:25;;;;;;;10.50;9.50;;;;;;;8.88;100.00;99156.19;109501;1251;59060;-75
2023/04/18 00:31:51;;;;;;;10.20;8.80;;;;;;;8.88;100.00;99159.91;109495;1251;59054;-75
2023/04/18 00:34:17;;;;;;;9.90;9.00;;;;;;;8.88;100.00;99165.75;109483;1251;58975;-74
2023/04/18 00:36:44;;;;;;;11.90;9.70;;;;;;;8.89;100.00;99167.28;109469;1251;59295;-75
2023/04/18 00:39:10;;;;;;;10.50;9.50;;;;;;;8.90;100.00;99169.52;109524;1251;59089;-74
2023/04/18 00:41:37;;;;;;;10.00;9.00;;;;;;;8.91;100.00;99169.98;109520;1251;59077;-75
2023/04/18 00:44:03;;;;;;;9.60;8.60;;;;;;;8.92;100.00;99169.92;109487;1251;58982;-75
2023/04/18 00:46:30;;;;;;;10.40;9.50;;;;;;;8.93;100.00;99169.87;109492;1251;58974;-75
2023/04/18 00:48:56;;;;;;;11.80;9.50;;;;;;;8.93;100.00;99168.42;109528;1251;59077;-75
2023/04/18 00:51:23;;;;;;;11.50;10.40;;;;;;;8.94;100.00;99164.67;109537;1251;58990;-74
2023/04/18 00:53:50;;;;;;;12.50;11.30;;;;;;;8.94;100.00;99164.33;109470;1251;64045;-75
2023/04/18 00:56:16;;;;;;;14.20;12.90;;;;;;;8.96;100.00;99160.30;109534;1251;58869;-75
2023/04/18 00:58:43;;;;;;;14.40;13.00;;;;;;;8.96;100.00;99158.89;109468;1251;59025;-75
2023/04/18 01:01:09;;;;;;;14.90;13.40;;;;;;;8.96;100.00;99159.92;109462;1251;58961;-75
2023/04/18 01:03:36;;;;;;;14.30;13.00;;;;;;;8.96;100.00;99160.63;109355;1251;59275;-75
2023/04/18 01:06:02;;;;;;;15.00;13.60;;;;;;;8.96;100.00;99158.70;109485;1251;59107;-75
2023/04/18 01:08:30;;;;;;;16.10;14.50;;;;;;;8.97;100.00;99159.55;109470;1251;59276;-75
2023/04/18 01:10:56;;;;;;;16.40;14.90;;;;;;;8.97;100.00;99159.71;109356;1251;59085;-75
2023/04/18 01:13:23;;;;;;;18.50;16.60;;;;;;;8.97;100.00;99155.98;109528;1250;59431;-75
2023/04/18 01:15:50;;;;;;;18.50;16.80;;;;;;;8.98;100.00;99155.42;109649;1250;59341;-75
2023/04/18 01:18:17;;;;;;;19.60;17.60;;;;;;;8.98;100.00;99156.10;109618;1250;62836;-76
2023/04/18 01:20:49;;;;;;;19.20;17.20;;;;;;;8.99;100.00;99159.06;109571;1250;59230;-75
2023/04/18 01:23:18;;;;;;;20.30;18.30;;;;;;;9.00;100.00;99159.36;109603;1250;59019;-75
2023/04/18 01:25:45;;;;;;;20.50;18.40;;;;;;;9.01;100.00;99160.02;109584;1250;64795;-75
2023/04/18 01:28:13;;;;;;;21.70;19.50;;;;;;;9.01;100.00;99162.84;109591;1250;60116;-75
2023/04/18 01:30:40;;;;;;;21.40;19.20;;;;;;;9.02;100.00;99163.67;109583;1250;64069;-75
2023/04/18 01:33:06;;;;;;;20.30;18.40;;;;;;;9.03;100.00;99166.64;109303;1250;58956;-76
2023/04/18 01:35:33;;;;;;;21.00;19.00;;;;;;;9.04;100.00;99168.58;109636;1250;59020;-75
2023/04/18 01:38:00;;;;;;;21.60;19.50;;;;;;;9.03;100.00;99167.70;109592;1250;64863;-76
2023/04/18 01:40:27;;;;;;;22.60;20.20;;;;;;;9.03;100.00;99166.11;109609;1250;60384;-76
2023/04/18 01:42:53;;;;;;;22.00;19.50;;;;;;;9.03;100.00;99167.72;109597;1250;64342;-76
2023/04/18 01:45:21;;;;;;;22.10;20.00;;;;;;;9.03;100.00;99167.36;109406;1250;59017;-76
2023/04/18 01:47:47;;;;;;;23.70;21.30;;;;;;;9.03;100.00;99166.11;109533;1250;58811;-75
2023/04/18 01:50:14;;;;;;;24.50;22.00;;;;;;;9.04;100.00;99169.95;109590;1250;66113;-75
2023/04/18 01:52:40;;;;;;;21.80;19.60;;;;;;;9.04;100.00;99168.52;109643;1250;59536;-75
2023/04/18 01:55:07;;;;;;;24.40;22.00;;;;;;;9.04;100.00;99167.85;109598;1250;64070;-75
2023/04/18 01:57:35;;;;;;;22.40;20.10;;;;;;;9.03;100.00;99171.59;109541;1250;58982;-74
2023/04/18 02:00:30;;;;;;;21.80;19.60;;;;;;;9.03;100.00;99171.95;109612;1250;59056;-74
2023/04/18 02:02:58;;;;;;;19.90;17.80;;;;;;;9.03;100.00;99167.55;109562;1251;66045;-74
2023/04/18 02:05:26;;;;;;;21.10;18.20;;;;;;;9.01;100.00;99166.55;109597;1250;60254;-75
2023/04/18 02:07:52;;;;;;;18.70;16.90;;;;;;;9.02;100.00;99169.70;109531;1250;64043;-75
2023/04/18 02:10:19;;;;;;;16.90;15.20;;;;;;;9.02;100.00;99173.42;109570;1250;58961;-75
2023/04/18 02:12:46;;;;;;;16.40;14.70;;;;;;;9.01;100.00;99171.86;109626;1250;58993;-75
2023/04/18 02:15:13;;;;;;;16.70;13.20;;;;;;;9.02;100.00;99169.17;109572;1250;66044;-75
2023/04/18 02:17:40;;;;;;;13.40;11.90;;;;;;;9.02;100.00;99167.20;109614;1250;60152;-74
2023/04/18 02:20:07;;;;;;;13.60;11.60;;;;;;;9.03;100.00;99167.17;109606;1250;64080;-75
2023/04/18 02:22:36;;;;;;;12.30;10.30;;;;;;;9.04;100.00;99168.74;109598;1250;59001;-74
2023/04/18 02:25:03;;;;;;;11.90;10.70;;;;;;;9.04;100.00;99171.19;109632;1250;59012;-74
2023/04/18 02:27:30;;;;;;;15.90;11.50;;;;;;;9.04;100.00;99169.59;109596;1250;64946;-74
2023/04/18 02:29:56;;;;;;;13.30;11.20;;;;;;;9.04;100.00;99168.34;109609;1250;58953;-74
2023/04/18 02:32:22;;;;;;;13.80;10.00;;;;;;;9.04;100.00;99170.48;109592;1250;59069;-74
2023/04/18 02:34:49;;;;;;;12.60;10.20;;;;;;;9.03;100.00;99168.58;109623;1250;59011;-74
2023/04/18 02:37:15;;;;;;;12.20;11.00;;;;;;;9.03;100.00;99173.90;109494;1253;59939;-74
2023/04/18 02:39:42;;;;;;;12.20;10.90;;;;;;;9.04;100.00;99174.41;109607;1250;59052;-75
2023/04/18 02:42:08;;;;;;;12.70;11.10;;;;;;;9.05;100.00;99175.02;109621;1250;58994;-75
2023/04/18 02:44:34;;;;;;;11.90;10.70;;;;;;;9.05;100.00;99173.59;109572;1250;59524;-75
2023/04/18 02:47:01;;;;;;;11.30;10.20;;;;;;;9.06;100.00;99167.02;109571;1250;59057;-75
2023/04/18 02:49:27;;;;;;;10.60;9.50;;;;;;;9.06;100.00;99173.19;109634;1250;58974;-75
2023/04/18 02:51:57;;;;;;;10.70;8.50;;;;;;;9.06;100.00;99172.85;109593;1250;59092;-76
2023/04/18 02:54:23;;;;;;;10.20;8.40;;;;;;;9.06;100.00;99173.39;109619;1250;59012;-75
2023/04/18 02:56:52;;;;;;;11.90;9.60;;;;;;;9.06;100.00;99172.34;109586;1250;64065;-76
2023/04/18 02:59:19;;;;;;;10.70;9.40;;;;;;;9.05;100.00;99171.48;109525;1250;59050;-75
2023/04/18 03:01:45;;;;;;;10.40;9.30;;;;;;;9.05;100.00;99169.90;109607;1250;59034;-76
2023/04/18 03:04:12;;;;;;;10.40;9.30;;;;;;;9.04;100.00;99170.99;109603;1250;59335;-76
2023/04/18 03:06:38;;;;;;;11.50;10.10;;;;;;;9.04;100.00;99169.60;109606;1250;59030;-76
2023/04/18 03:09:05;;;;;;;13.50;10.60;;;;;;;9.04;100.00;99168.91;109605;1250;59113;-75
2023/04/18 03:11:31;;;;;;;10.80;9.80;;;;;;;9.04;100.00;99174.24;109592;1250;58971;-76
2023/04/18 03:13:58;;;;;;;12.10;10.80;;;;;;;9.04;100.00;99176.00;109588;1250;59029;-76
2023/04/18 03:16:25;;;;;;;13.60;12.20;;;;;;;9.03;100.00;99174.06;109590;1250;66073;-76
2023/04/18 03:18:51;;;;;;;13.30;12.00;;;;;;;9.04;100.00;99174.92;109599;1250;59181;-76
2023/04/18 03:21:18;;;;;;;13.60;12.20;;;;;;;9.05;100.00;99174.32;109275;1250;59219;-76
2023/04/18 03:23:44;;;;;;;12.80;11.50;;;;;;;9.06;100.00;99171.45;109566;1250;58968;-76
2023/04/18 03:26:12;;;;;;;14.60;13.30;;;;;;;9.07;100.00;99176.34;109607;1250;59038;-76
2023/04/18 03:28:39;;;;;;;17.30;15.40;;;;;;;9.07;100.00;99172.23;109593;1250;64985;-75
2023/04/18 03:31:06;;;;;;;15.60;13.90;;;;;;;9.08;100.00;99175.92;109594;1250;58981;-76
2023/04/18 03:33:32;;;;;;;15.50;14.00;;;;;;;9.09;100.00;99177.28;109562;1250;64068;-76
2023/04/18 03:35:59;;;;;;;16.70;15.00;;;;;;;9.10;100.00;99176.66;109582;1250;58931;-76
2023/04/18 03:38:25;;;;;;;15.00;13.50;;;;;;;9.11;100.00;99186.04;109635;1250;58856;-76
2023/04/18 03:40:52;;;;;;;15.50;14.10;;;;;;;9.11;100.00;99186.38;109410;1254;59326;-75
2023/04/18 03:43:21;;;;;;;15.70;14.10;;;;;;;9.11;100.00;99183.55;109612;1250;59003;-76
2023/04/18 03:45:48;;;;;;;15.70;13.80;;;;;;;9.10;100.00;99178.07;109585;1250;62863;-75
2023/04/18 03:48:15;;;;;;;15.20;13.30;;;;;;;9.10;100.00;99181.64;109579;1250;59072;-76
2023/04/18 03:50:41;;;;;;;15.60;14.00;;;;;;;9.10;100.00;99181.81;109626;1250;58886;-76
2023/04/18 03:53:08;;;;;;;16.70;15.10;;;;;;;9.11;100.00;99187.99;109602;1250;59602;-75
2023/04/18 03:55:34;;;;;;;16.30;14.60;;;;;;;9.11;100.00;99195.26;109555;1250;58985;-75
2023/04/18 03:58:01;;;;;;;18.40;16.50;;;;;;;9.12;100.00;99196.98;109580;1250;64064;-75
2023/04/18 04:00:28;;;;;;;19.70;17.10;;;;;;;9.12;100.00;99192.54;109592;1250;58993;-75
2023/04/18 04:02:54;;;;;;;17.90;16.10;;;;;;;9.14;100.00;99199.88;109562;1250;59114;-75
2023/04/18 04:05:21;;;;;;;15.80;14.40;;;;;;;9.16;100.00;99201.71;109630;1250;64835;-75
2023/04/18 04:07:47;;;;;;;22.00;18.40;;;;;;;9.17;100.00;99207.64;109708;1250;59054;-76
2023/04/18 04:10:14;;;;;;;18.50;15.90;;;;;;;9.19;100.00;99211.27;109591;1250;59021;-75
2023/04/18 04:12:41;;;;;;;21.30;18.10;;;;;;;9.20;100.00;99214.00;109594;1250;58988;-75
2023/04/18 04:15:08;;;;;;;23.40;20.60;;;;;;;9.22;100.00;99210.58;109678;1250;58985;-74
2023/04/18 04:17:34;;;;;;;22.40;20.20;;;;;;;9.24;100.00;99216.27;109623;1250;64949;-75
2023/04/18 04:20:01;;;;;;;24.00;21.50;;;;;;;9.26;100.00;99217.41;109603;1250;58976;-75
2023/04/18 04:22:27;;;;;;;24.50;21.90;;;;;;;9.28;100.00;99221.73;109599;1250;62868;-74
2023/04/18 04:24:56;;;;;;;23.10;20.70;;;;;;;9.29;100.00;99224.87;109456;1250;59124;-74
2023/04/18 04:27:23;;;;;;;25.20;22.10;;;;;;;9.31;100.00;99223.86;109618;1250;58924;-75
2023/04/18 04:29:51;;;;;;;22.90;20.60;;;;;;;9.35;100.00;99229.13;109560;1250;66044;-75
2023/04/18 04:32:19;;;;;;;23.90;19.70;;;;;;;9.39;100.00;99235.44;109639;1250;59663;-76
2023/04/18 04:34:46;;;;;;;23.80;21.10;;;;;;;9.43;100.00;99240.19;109564;1250;64187;-76
2023/04/18 04:37:13;;;;;;;26.30;23.50;;;;;;;9.47;100.00;99246.53;109565;1250;59011;-76
2023/04/18 04:39:39;;;;;;;25.30;21.60;;;;;;;9.49;100.00;99246.59;109632;1250;59760;-76
2023/04/18 04:42:08;;;;;;;23.80;21.30;;;;;;;9.52;100.00;99248.02;109637;1250;64822;-75
2023/04/18 04:44:36;;;;;;;27.80;23.30;;;;;;;9.58;100.00;99241.29;109621;1250;59117;-76
2023/04/18 04:47:02;;;;;;;30.60;26.80;;;;;;;9.64;100.00;99243.23;109613;1250;64058;-76
2023/04/18 04:49:30;;;;;;;28.50;25.60;;;;;;;9.70;100.00;99247.12;109575;1250;59017;-76
2023/04/18 04:51:56;;;;;;;28.00;24.80;;;;;;;9.75;100.00;99250.36;109596;1250;58989;-76
2023/04/18 04:54:23;;;;;;;25.70;23.00;;;;;;;9.78;100.00;99254.60;109613;1250;59166;-76
2023/04/18 04:56:50;;;;;;;27.50;21.80;;;;;;;9.79;100.00;99253.48;109598;1250;59314;-76
2023/04/18 04:59:16;;;;;;;24.90;21.10;;;;;;;9.80;100.00;99256.66;109582;1250;64118;-76
2023/04/18 05:01:42;;;;;;;23.00;20.40;;;;;;;9.79;100.00;99255.09;109494;1250;58960;-76
2023/04/18 05:04:09;;;;;;;24.90;21.60;;;;;;;9.78;100.00;99270.74;109564;1250;59051;-76
2023/04/18 05:06:36;;;;;;;24.70;22.00;;;;;;;9.79;100.00;99271.79;109611;1250;64840;-76
2023/04/18 05:09:03;;;;;;;29.90;24.90;;;;;;;9.82;100.00;99271.59;109605;1251;60138;-76
2023/04/18 05:11:29;;;;;;;27.40;23.00;;;;;;;9.87;100.00;99276.09;109673;1250;59240;-76
2023/04/18 05:13:56;;;;;;;26.30;23.50;;;;;;;9.95;100.00;99277.39;109584;1250;59077;-76
2023/04/18 05:16:23;;;;;;;23.60;19.50;;;;;;;10.03;100.00;99283.48;109609;1250;59018;-76
2023/04/18 05:18:49;;;;;;;24.40;21.70;;;;;;;10.08;100.00;99288.11;109602;1250;65742;-76
2023/04/18 05:21:15;;;;;;;26.00;23.40;;;;;;;10.11;100.00;99287.27;109582;1250;59117;-76
2023/04/18 05:23:42;;;;;;;24.00;21.50;;;;;;;10.13;100.00;99292.67;109564;1250;59015;-77
2023/04/18 05:26:08;;;;;;;22.80;20.50;;;;;;;10.13;100.00;99293.71;109632;1250;59675;-76
2023/04/18 05:28:35;;;;;;;20.50;18.50;;;;;;;10.16;100.00;99295.50;109605;1250;59062;-75
2023/04/18 05:31:01;;;;;;;18.80;16.60;;;;;;;10.23;100.00;99289.89;109590;1250;59031;-76
2023/04/18 05:33:29;;;;;;;20.40;18.30;;;;;;;10.32;100.00;99293.31;109620;1249;59207;-76
2023/04/18 05:35:56;;;;;;;20.40;18.30;;;;;;;10.40;100.00;99298.51;109385;1250;64065;-75
2023/04/18 05:38:23;;;;;;;21.40;19.10;;;;;;;10.45;100.00;99297.80;109575;1250;59009;-75
2023/04/18 05:40:50;;;;;;;21.90;19.60;;;;;;;10.53;100.00;99303.55;109618;1250;59075;-76
2023/04/18 05:43:18;;;;;;;22.60;20.20;;;;;;;10.57;100.00;99304.59;109596;1250;66095;-75
2023/04/18 05:45:45;;;;;;;18.90;17.00;;;;;;;10.54;100.00;99306.13;109556;1250;59924;-75
2023/04/18 05:48:12;;;;;;;21.90;19.50;;;;;;;10.51;100.00;99309.20;109579;1250;63392;-76
2023/04/18 05:50:39;;;;;;;18.60;16.80;;;;;;;10.48;100.00;99312.54;109586;1250;59000;-75
2023/04/18 05:53:06;;;;;;;19.50;17.70;;;;;;;10.44;100.00;99309.95;109586;1250;59067;-76
2023/04/18 05:55:33;;;;;;;19.40;17.50;;;;;;;10.39;100.00;99314.19;109599;1250;59025;-75
2023/04/18 05:57:59;;;;;;;18.70;16.10;;;;;;;10.35;100.00;99321.20;109654;1250;59191;-75
2023/04/18 06:00:27;;;;;;;18.00;16.20;;;;;;;10.28;100.00;99324.41;109563;1250;62814;-76
2023/04/18 06:02:53;;;;;;;19.30;16.30;;;;;;;10.24;100.00;99323.27;109447;1250;59113;-75
2023/04/18 06:05:20;;;;;;;17.40;14.60;;;;;;;10.23;100.00;99326.88;109608;1250;58917;-76
2023/04/18 06:07:47;;;;;;;22.80;20.40;;;;;;;10.22;100.00;99324.04;109623;1250;59613;-75
2023/04/18 06:10:14;;;;;;;20.40;18.60;;;;;;;10.24;100.00;99324.33;109597;1250;67902;-76
2023/04/18 06:12:42;;;;;;;19.60;17.70;;;;;;;10.24;100.00;99327.66;109599;1250;64126;-76
2023/04/18 06:15:10;;;;;;;18.40;16.40;;;;;;;10.23;100.00;99318.85;109565;1250;58968;-77
2023/04/18 06:17:36;;;;;;;21.10;18.80;;;;;;;10.21;100.00;99326.61;109680;1250;59021;-76
2023/04/18 06:20:05;;;;;;;23.40;20.80;;;;;;;10.21;100.00;99333.19;109572;1250;66075;-76
2023/04/18 06:22:54;;;;;;;19.30;17.40;;;;;;;10.23;100.00;99332.38;109285;1250;59006;-76
2023/04/18 06:25:21;;;;;;;19.50;17.30;;;;;;;10.25;100.00;99334.70;109639;1250;63739;-75
2023/04/18 06:27:47;;;;;;;18.00;15.80;;;;;;;10.28;100.00;99337.20;109604;1250;59178;-76
2023/04/18 06:30:14;;;;;;;18.70;16.70;;;;;;;10.31;100.00;99342.36;109589;1250;59008;-76
2023/04/18 06:32:40;;;;;;;18.80;16.80;;;;;;;10.33;100.00;99346.86;109605;1250;66070;-77
2023/04/18 06:35:07;;;;;;;19.60;17.60;;;;;;;10.38;100.00;99351.38;109487;1250;59022;-77
2023/04/18 06:37:33;;;;;;;19.10;17.10;;;;;;;10.41;100.00;99354.73;109651;1250;64032;-76
2023/04/18 06:40:00;;;;;;;18.00;16.30;;;;;;;10.43;100.00;99353.91;109577;1250;59255;-77
2023/04/18 06:42:26;;;;;;;17.90;16.10;;;;;;;10.48;100.00;99361.09;109654;1250;58966;-76
2023/04/18 06:44:53;;;;;;;21.00;18.90;;;;;;;10.55;100.00;99362.09;109597;1250;59048;-76
2023/04/18 06:47:19;;;;;;;19.00;17.10;;;;;;;10.62;100.00;99362.88;109608;1250;59060;-76
2023/04/18 06:49:46;;;;;;;19.60;17.50;;;;;;;10.70;100.00;99362.75;109609;1250;58963;-76
2023/04/18 06:52:12;;;;;;;19.70;17.80;;;;;;;10.80;100.00;99358.57;109582;1250;58968;-76
2023/04/18 06:54:39;;;;;;;18.80;16.90;;;;;;;10.98;100.00;99355.84;109571;1250;59058;-76
2023/04/18 06:57:05;;;;;;;19.30;17.30;;;;;;;11.22;100.00;99359.89;109649;1250;59081;-77
2023/04/18 06:59:32;;;;;;;21.30;19.30;;;;;;;11.43;100.00;99354.27;109600;1250;58901;-76
2023/04/18 07:01:58;;;;;;;18.70;17.00;;;;;;;11.74;100.00;99361.48;109629;1250;59040;-77
2023/04/18 07:04:25;;;;;;;19.80;17.90;;;;;;;12.05;100.00;99360.89;109579;1250;58957;-77
2023/04/18 07:06:51;;;;;;;18.10;16.30;;;;;;;12.24;100.00;99362.45;109657;1250;59011;-77
2023/04/18 07:09:18;;;;;;;15.30;13.60;;;;;;;12.35;100.00;99358.83;109633;1250;59058;-78
2023/04/18 07:11:44;;;;;;;16.60;15.10;;;;;;;12.39;100.00;99359.13;109639;1250;60219;-76
2023/04/18 07:14:11;;;;;;;15.80;14.10;;;;;;;12.44;100.00;99364.27;109600;1250;62795;-76
2023/04/18 07:16:38;;;;;;;15.60;13.50;;;;;;;12.45;100.00;99365.80;109623;1250;59027;-76
2023/04/18 07:19:05;;;;;;;15.80;14.30;;;;;;;12.48;100.00;99373.23;109579;1250;59202;-77
2023/04/18 07:21:32;;;;;;;13.90;12.60;;;;;;;12.58;100.00;99369.75;109629;1250;64818;-77
2023/04/18 07:23:58;;;;;;;15.00;13.50;;;;;;;12.67;100.00;99375.86;109631;1250;59101;-76
2023/04/18 07:26:26;;;;;;;14.50;13.00;;;;;;;12.80;100.00;99376.04;109598;1250;64079;-77
2023/04/18 07:28:53;;;;;;;13.10;11.80;;;;;;;12.88;100.00;99381.16;109616;1250;59218;-77
2023/04/18 07:31:19;;;;;;;14.80;13.20;;;;;;;12.85;100.00;99386.60;109640;1250;59114;-77
2023/04/18 07:33:45;;;;;;;14.10;12.60;;;;;;;12.74;100.00;99382.91;109618;1250;59040;-77
2023/04/18 07:36:12;;;;;;;13.80;12.60;;;;;;;12.69;100.00;99384.64;109610;1250;59075;-77
2023/04/18 07:38:39;;;;;;;14.30;13.00;;;;;;;12.74;100.00;99385.36;109582;1250;64107;-77
2023/04/18 07:41:05;;;;;;;15.40;13.50;;;;;;;12.81;100.00;99383.46;109607;1250;58912;-76
2023/04/18 07:43:31;;;;;;;13.70;12.30;;;;;;;12.91;100.00;99387.95;109273;1250;59033;-76
2023/04/18 07:45:58;;;;;;;14.20;12.80;;;;;;;13.03;100.00;99386.93;109622;1250;58885;-77
2023/04/18 07:48:24;;;;;;;14.50;13.00;;;;;;;13.15;100.00;99386.45;109645;1250;59071;-77
2023/04/18 07:50:52;;;;;;;14.40;12.90;;;;;;;13.30;100.00;99389.48;109629;1250;59335;-77
2023/04/18 07:53:18;;;;;;;14.60;13.10;;;;;;;13.32;100.00;99392.71;109612;1251;58860;-77
2023/04/18 07:55:45;;;;;;;16.10;14.50;;;;;;;13.47;100.00;99389.68;109644;1250;58974;-77
2023/04/18 07:58:12;;;;;;;16.80;12.80;;;;;;;13.70;100.00;99389.23;109499;1250;66041;-77
2023/04/18 08:00:41;;;;;;;15.10;11.80;;;;;;;13.92;100.00;99395.31;109629;1250;60346;-77
2023/04/18 08:03:09;;;;;;;12.30;11.10;;;;;;;14.01;100.00;99394.46;109576;1250;64068;-78
2023/04/18 08:05:37;;;;;;;12.90;11.50;;;;;;;14.07;100.00;99395.12;109461;1250;59095;-77
2023/04/18 08:08:06;;;;;;;13.70;10.70;;;;;;;14.04;100.00;99394.79;109647;1250;58892;-78
2023/04/18 08:10:33;;;;;;;12.50;11.10;;;;;;;13.94;100.00;99403.01;109591;1250;66026;-78
2023/04/18 08:13:00;;;;;;;13.50;11.40;;;;;;;13.89;100.00;99400.39;109613;1250;59066;-78
2023/04/18 08:15:27;;;;;;;11.50;10.40;;;;;;;13.81;100.00;99399.52;109654;1250;63045;-77
2023/04/18 08:17:54;;;;;;;13.00;10.90;;;;;;;13.77;100.00;99400.89;109629;1250;58998;-78
2023/04/18 08:20:22;;;;;;;12.40;11.10;;;;;;;13.70;100.00;99402.11;109626;1250;59022;-78
2023/04/18 08:22:49;;;;;;;12.10;10.90;;;;;;;13.63;100.00;99400.30;109627;1250;66023;-77
2023/04/18 08:25:16;;;;;;;11.80;10.30;;;;;;;13.51;100.00;99404.56;109610;1250;59026;-78
2023/04/18 08:27:43;;;;;;;10.50;9.50;;;;;;;13.37;100.00;99407.34;109615;1250;64056;-77
2023/04/18 08:30:10;;;;;;;11.70;10.40;;;;;;;13.41;100.00;99407.23;109630;1250;59046;-78
2023/04/18 08:32:36;;;;;;;12.00;10.70;;;;;;;13.58;100.00;99410.33;109632;1250;59158;-78
2023/04/18 08:35:03;;;;;;;11.00;9.90;;;;;;;13.84;100.00;99410.20;109619;1250;58949;-78
2023/04/18 08:37:30;;;;;;;11.60;10.30;;;;;;;14.16;100.00;99407.64;109625;1250;58985;-77
2023/04/18 08:39:56;;;;;;;10.40;9.10;;;;;;;14.45;100.00;99407.58;109664;1250;62849;-78
2023/04/18 08:42:23;;;;;;;9.90;9.00;;;;;;;14.72;100.00;99406.40;109608;1250;58997;-77
2023/04/18 08:44:51;;;;;;;9.60;8.80;;;;;;;14.93;100.00;99407.27;109636;1250;59047;-78
2023/04/18 08:47:18;;;;;;;9.80;8.80;;;;;;;15.11;100.00;99406.92;109284;1250;64867;-78
2023/04/18 08:49:45;;;;;;;10.80;9.50;;;;;;;15.21;100.00;99405.83;109634;1250;60080;-77
2023/04/18 08:52:13;;;;;;;10.30;9.30;;;;;;;15.29;100.00;99412.50;109314;1250;65246;-77
2023/04/18 08:54:41;;;;;;;10.10;9.10;;;;;;;15.28;100.00;99409.16;109657;1250;58927;-77
2023/04/18 08:57:09;;;;;;;10.70;9.70;;;;;;;15.27;100.00;99404.62;109624;1250;58933;-76
2023/04/18 08:59:36;;;;;;;12.60;10.20;;;;;;;15.26;100.00;99406.14;109531;1250;65775;-77
2023/04/18 09:02:07;;;;;;;9.30;8.20;;;;;;;15.13;100.00;99406.99;109630;1250;59004;-77
2023/04/18 09:04:36;;;;;;;11.70;9.10;;;;;;;14.90;100.00;99406.27;109628;1250;64066;-78
2023/04/18 09:07:08;;;;;;;9.60;8.60;;;;;;;14.68;100.00;99410.31;109289;1250;59036;-77
2023/04/18 09:09:49;;;;;;;9.60;8.70;;;;;;;14.55;100.00;99412.24;109623;1250;58885;-77
2023/04/18 09:12:23;;;;;;;9.80;8.80;;;;;;;14.60;100.00;99408.23;109628;1250;66014;-77
2023/04/18 09:14:55;;;;;;;10.50;9.30;;;;;;;14.66;100.00;99405.45;109639;1250;60196;-77
2023/04/18 09:17:42;;;;;;;8.80;7.60;;;;;;;14.69;100.00;99398.95;109639;1250;62851;-77
2023/04/18 09:20:10;;;;;;;9.60;8.60;;;;;;;14.76;100.00;99401.66;109615;1250;58938;-77
2023/04/18 09:22:51;;;;;;;10.40;8.20;;;;;;;14.82;100.00;99403.15;109270;1250;59283;-77
2023/04/18 09:25:33;;;;;;;9.50;7.80;;;;;;;14.84;100.00;99402.27;109523;1250;144893;-77
2023/04/18 09:28:03;;;;;;;8.70;7.80;;;;;;;14.88;100.00;99400.58;109621;1250;59878;-77
2023/04/18 09:30:38;;;;;;;8.60;7.70;;;;;;;14.86;100.00;99402.25;109637;1250;64142;-77
2023/04/18 09:33:09;;;;;;;10.30;8.40;;;;;;;14.71;100.00;99402.72;109498;1254;59049;-77
2023/04/18 09:35:36;;;;;;;8.20;7.40;;;;;;;14.57;100.00;99401.86;109606;1250;59109;-77
2023/04/18 09:38:03;;;;;;;8.40;7.50;;;;;;;14.50;100.00;99403.94;109660;1250;64922;-77
2023/04/18 09:40:30;;;;;;;10.40;7.60;;;;;;;14.41;100.00;99398.56;109637;1250;60176;-78
2023/04/18 09:42:57;;;;;;;8.00;7.20;;;;;;;14.44;100.00;99398.52;109627;1250;63081;-77
2023/04/18 09:45:24;;;;;;;7.60;6.80;;;;;;;14.53;100.00;99397.53;109600;1250;59182;-77
2023/04/18 09:47:52;;;;;;;9.80;8.30;;;;;;;14.70;100.00;99391.23;109639;1250;58867;-78
2023/04/18 09:50:19;;;;;;;8.20;7.40;;;;;;;14.87;100.00;99390.77;109630;1250;66016;-77
2023/04/18 09:52:47;;;;;;;8.00;7.20;;;;;;;14.90;100.00;99389.11;109616;1250;59873;-77
2023/04/18 09:55:16;;;;;;;8.10;7.20;;;;;;;14.91;100.00;99393.31;109409;1250;62657;-78
2023/04/18 09:57:46;;;;;;;7.50;6.50;;;;;;;14.78;100.00;99394.85;109624;1250;58990;-79
2023/04/18 10:00:32;;;;;;;9.30;6.60;;;;;;;14.73;100.00;99394.55;109628;1250;59114;-78
2023/04/18 10:03:10;;;;;;;7.40;6.00;;;;;;;14.76;100.00;99391.31;109500;1250;66023;-77
2023/04/18 10:05:39;;;;;;;6.50;5.90;;;;;;;14.84;100.00;99389.23;109613;1250;59858;-77
2023/04/18 10:08:07;;;;;;;9.30;5.80;;;;;;;14.98;100.00;99386.65;109613;1250;62836;-78
2023/04/18 10:10:33;;;;;;;6.60;5.20;;;;;;;15.28;100.00;99386.80;109595;1250;59093;-78
2023/04/18 10:13:01;;;;;;;5.60;5.00;;;;;;;15.54;100.00;99386.48;109656;1250;59047;-77
2023/04/18 10:15:29;;;;;;;7.80;5.20;;;;;;;15.68;100.00;99387.52;109664;1250;64839;-78
2023/04/18 10:17:58;;;;;;;6.80;5.40;;;;;;;15.71;100.00;99389.98;109658;1250;59333;-79
2023/04/18 10:20:27;;;;;;;6.50;5.80;;;;;;;15.71;100.00;99387.46;109605;1250;64079;-78
2023/04/18 10:22:55;;;;;;;5.80;5.30;;;;;;;15.83;100.00;99376.88;109629;1250;59026;-79
2023/04/18 10:25:46;;;;;;;6.10;5.50;;;;;;;15.86;100.00;99378.19;109616;1250;58888;-78
2023/04/18 10:28:13;;;;;;;;;;;;;;;15.93;100.00;99376.05;109595;1250;64870;-78
2023/04/18 10:30:39;;;;;;;5.20;4.60;;;;;;;15.94;100.00;99371.39;109476;1250;60134;-78
2023/04/18 10:33:26;;;;;;;5.60;5.10;;;;;;;15.95;100.00;99369.95;109648;1250;59291;-78
2023/04/18 10:36:08;;;;;;;5.50;5.00;;;;;;;15.96;100.00;99372.88;109630;1250;58995;-77
2023/04/18 10:38:44;;;;;;;7.00;5.60;;;;;;;15.96;100.00;99365.54;109626;1251;58853;-77
2023/04/18 10:41:18;;;;;;;5.40;4.90;;;;;;;16.04;100.00;99365.39;109674;1250;65714;-78
2023/04/18 10:44:09;;;;;;;7.40;4.70;;;;;;;16.22;100.00;99359.02;109680;1250;60208;-78
2023/04/18 10:46:37;;;;;;;6.60;4.90;;;;;;;16.58;100.00;99358.25;109609;1250;63695;-78
2023/04/18 10:49:25;;;;;;;5.10;4.20;;;;;;;16.94;100.00;99359.01;109581;1251;58959;-78
2023/04/18 10:51:54;;;;;;;4.90;4.50;;;;;;;17.03;100.00;99355.64;109615;1251;59016;-78
2023/04/18 10:54:34;;;;;;;5.10;4.20;;;;;;;17.03;100.00;99358.02;109603;1251;65005;-77
2023/04/18 10:57:03;;;;;;;4.40;3.90;;;;;;;16.96;100.00;99352.75;109319;1250;60138;-79
2023/04/18 10:59:31;;;;;;;4.20;3.80;;;;;;;16.77;100.00;99353.65;109619;1251;62900;-78
2023/04/18 11:02:25;;;;;;;5.50;3.90;;;;;;;16.61;95.15;99359.13;109644;1251;59319;-78
2023/04/18 11:04:54;;;;;;;4.20;3.80;;;;;;;16.50;80.52;99347.67;108962;1258;58985;-78
2023/04/18 11:07:47;;;;;;;5.50;3.70;;;;;;;16.51;74.65;99342.41;108965;1258;66037;-78
2023/04/18 11:10:22;;;;;;;4.90;3.50;;;;;;;16.65;70.15;99338.11;108997;1257;59088;-78
2023/04/18 11:12:49;;;;;;;4.80;3.90;;;;;;;16.84;69.79;99339.20;108965;1259;64404;-79